Time;durP1;ratioP1;P1;durP2;ratioP2;P2;SDS_P1;SDS_P2;PMS_P1;PMS_P2;Temp;Humidity;BMP_temperature;BMP_pressure;BME280_temperature;BME280_humidity;BME280_pressure;Samples;Min_cycle;Max_cycle;Signal;HPM_P1;HPM_P2
2021/01/13 00:00:32;;;;;;;7.60;2.35;;;3.60;99.90;;;;;;4861790;29;20065;-79
2021/01/13 00:03:21;;;;;;;11.15;1.23;;;3.60;99.90;;;;;;4861245;29;20036;-79
2021/01/13 00:05:46;;;;;;;15.40;3.08;;;3.60;99.90;;;;;;4861278;29;20101;-78
2021/01/13 00:08:12;;;;;;;7.10;1.95;;;3.60;99.90;;;;;;4859450;29;20057;-77
2021/01/13 00:10:38;;;;;;;10.88;2.55;;;3.70;99.90;;;;;;4862073;29;20053;-77
2021/01/13 00:13:03;;;;;;;4.65;1.00;;;3.70;99.90;;;;;;4860054;29;20080;-78
2021/01/13 00:15:29;;;;;;;6.72;1.52;;;3.80;99.90;;;;;;4859887;29;20036;-78
2021/01/13 00:17:55;;;;;;;12.00;1.83;;;3.80;99.90;;;;;;4863435;29;20101;-77
2021/01/13 00:20:21;;;;;;;15.50;1.83;;;3.80;99.90;;;;;;4858152;29;20037;-77
2021/01/13 00:22:47;;;;;;;8.43;0.90;;;3.90;99.90;;;;;;4861281;29;20394;-77
2021/01/13 00:25:17;;;;;;;14.75;1.38;;;3.70;99.90;;;;;;4860207;29;20509;-77
2021/01/13 00:27:43;;;;;;;3.38;0.77;;;3.80;99.90;;;;;;4844588;29;20069;-76
2021/01/13 00:30:09;;;;;;;8.88;1.20;;;3.80;99.90;;;;;;4861503;29;20100;-77
2021/01/13 00:32:35;;;;;;;15.50;1.38;;;3.80;99.90;;;;;;4859679;29;20038;-77
2021/01/13 00:35:01;;;;;;;7.18;1.13;;;3.90;99.90;;;;;;4859996;29;20025;-76
2021/01/13 00:37:27;;;;;;;6.35;1.45;;;3.90;99.90;;;;;;4859479;29;20025;-77
2021/01/13 00:39:53;;;;;;;11.90;1.00;;;4.00;99.90;;;;;;4861053;29;20449;-78
2021/01/13 00:42:18;;;;;;;6.68;0.90;;;4.00;99.90;;;;;;4860935;29;20117;-77
2021/01/13 00:44:44;;;;;;;8.57;0.93;;;4.10;99.90;;;;;;4859558;29;20113;-77
2021/01/13 00:47:14;;;;;;;4.75;0.90;;;4.10;99.90;;;;;;4860648;29;20045;-77
2021/01/13 00:49:40;;;;;;;6.30;0.88;;;4.10;99.90;;;;;;4845489;29;20044;-77
2021/01/13 00:52:09;;;;;;;6.80;1.40;;;4.10;99.90;;;;;;4859840;29;20029;-77
2021/01/13 00:54:34;;;;;;;8.88;1.75;;;4.00;99.90;;;;;;4859030;29;20025;-77
2021/01/13 00:57:02;;;;;;;3.35;1.08;;;3.90;99.90;;;;;;4859689;29;20395;-76
2021/01/13 00:59:28;;;;;;;6.68;1.10;;;3.80;99.90;;;;;;4856650;29;20463;-78
2021/01/13 01:01:53;;;;;;;6.57;1.20;;;3.70;99.90;;;;;;4859435;29;20030;-77
2021/01/13 01:04:19;;;;;;;7.40;1.05;;;3.70;99.90;;;;;;4844213;29;20507;-77
2021/01/13 01:06:49;;;;;;;7.43;0.85;;;3.70;99.90;;;;;;4843639;29;20033;-79
2021/01/13 01:09:16;;;;;;;6.82;0.77;;;3.70;99.90;;;;;;4843116;29;20042;-77
2021/01/13 01:11:45;;;;;;;4.20;0.88;;;3.70;99.90;;;;;;4859470;29;20025;-77
2021/01/13 01:14:11;;;;;;;4.32;0.90;;;3.60;99.90;;;;;;4828940;29;20121;-78
2021/01/13 01:16:44;;;;;;;7.82;1.00;;;3.70;99.90;;;;;;4861542;29;20048;-76
2021/01/13 01:19:12;;;;;;;5.57;0.98;;;3.60;99.90;;;;;;4863358;29;20034;-77
2021/01/13 01:21:43;;;;;;;6.80;1.30;;;3.60;99.90;;;;;;4863003;29;20494;-76
2021/01/13 01:24:09;;;;;;;9.52;1.00;;;3.50;99.90;;;;;;4863002;29;20026;-77
2021/01/13 01:26:48;;;;;;;8.60;1.10;;;3.50;99.90;;;;;;4862860;29;20049;-76
2021/01/13 01:29:14;;;;;;;11.55;1.55;;;3.50;99.90;;;;;;4846865;29;20094;-77
2021/01/13 01:31:40;;;;;;;8.50;1.10;;;3.40;99.90;;;;;;4842221;29;20029;-77
2021/01/13 01:34:07;;;;;;;8.35;0.90;;;3.30;99.90;;;;;;4863372;29;20022;-76
2021/01/13 01:36:33;;;;;;;6.63;1.13;;;3.20;99.90;;;;;;4862312;29;20539;-77
2021/01/13 01:38:59;;;;;;;8.55;0.98;;;3.20;99.90;;;;;;4847185;29;20026;-76
2021/01/13 01:41:25;;;;;;;7.22;1.42;;;3.20;99.90;;;;;;4847258;29;20471;-79
2021/01/13 01:43:51;;;;;;;16.27;1.67;;;3.20;99.90;;;;;;4862274;29;20036;-78
2021/01/13 01:46:18;;;;;;;8.13;1.65;;;3.20;99.90;;;;;;4843988;29;20502;-77
2021/01/13 01:48:53;;;;;;;4.97;0.77;;;3.20;99.90;;;;;;4863631;29;20041;-77
2021/01/13 01:52:00;;;;;;;6.65;1.42;;;3.30;99.90;;;;;;4861694;29;20483;-77
2021/01/13 01:54:26;;;;;;;3.83;0.85;;;3.40;99.90;;;;;;4791220;29;20046;-77
2021/01/13 01:56:54;;;;;;;2.35;0.55;;;3.50;99.90;;;;;;4806243;29;20030;-77
2021/01/13 01:59:34;;;;;;;6.25;1.33;;;3.50;99.90;;;;;;4818049;29;20029;-78
2021/01/13 02:02:03;;;;;;;6.63;1.10;;;3.50;99.90;;;;;;4844378;29;20030;-78
2021/01/13 02:04:31;;;;;;;3.35;0.30;;;3.60;99.90;;;;;;4862446;29;20029;-78
2021/01/13 02:07:09;;;;;;;7.03;0.80;;;3.60;99.90;;;;;;4862011;29;20041;-78
2021/01/13 02:09:36;;;;;;;6.80;1.45;;;3.60;99.90;;;;;;4857909;29;20128;-75
2021/01/13 02:12:12;;;;;;;13.07;1.50;;;3.60;99.90;;;;;;4826915;29;20045;-77
2021/01/13 02:14:41;;;;;;;5.78;0.77;;;3.60;99.90;;;;;;4826900;29;20088;-77
2021/01/13 02:17:08;;;;;;;2.83;0.47;;;3.60;99.90;;;;;;4820476;29;20046;-78
2021/01/13 02:19:36;;;;;;;5.17;0.90;;;3.60;99.90;;;;;;4818779;29;20495;-78
2021/01/13 02:22:10;;;;;;;9.77;1.08;;;3.70;99.90;;;;;;4832775;29;20087;-77
2021/01/13 02:25:13;;;;;;;6.65;0.80;;;3.70;99.90;;;;;;4829807;29;20038;-77
2021/01/13 02:28:02;;;;;;;6.20;0.80;;;3.70;99.90;;;;;;4821873;29;20073;-76
2021/01/13 02:30:42;;;;;;;9.95;1.00;;;3.70;99.90;;;;;;4822811;29;20527;-77
2021/01/13 02:33:32;;;;;;;4.78;0.73;;;3.70;99.90;;;;;;4816606;29;20174;-77
2021/01/13 02:36:37;;;;;;;4.68;1.25;;;3.80;99.90;;;;;;4812819;29;20399;-77
2021/01/13 02:39:07;;;;;;;5.93;0.68;;;3.80;99.90;;;;;;4829020;29;20034;-77
2021/01/13 02:41:44;;;;;;;4.20;0.55;;;3.90;99.90;;;;;;4826758;29;20509;-78
2021/01/13 02:44:10;;;;;;;5.32;0.93;;;4.00;99.90;;;;;;4860572;29;20044;-77
2021/01/13 02:46:51;;;;;;;7.53;0.60;;;4.10;99.90;;;;;;4862882;29;20053;-78
2021/01/13 02:49:46;;;;;;;5.53;0.50;;;4.10;99.90;;;;;;4845684;29;20034;-79
2021/01/13 02:52:21;;;;;;;4.82;0.70;;;4.10;99.90;;;;;;4841355;29;20033;-76
2021/01/13 02:54:56;;;;;;;1.58;0.63;;;4.10;99.90;;;;;;4861680;29;20077;-76
2021/01/13 02:57:29;;;;;;;9.52;2.17;;;4.10;99.90;;;;;;4860093;29;20042;-76
2021/01/13 02:59:56;;;;;;;9.65;1.10;;;4.10;99.90;;;;;;4861514;29;20105;-77
2021/01/13 03:02:36;;;;;;;3.58;1.88;;;4.10;99.90;;;;;;4861248;29;20112;-76
2021/01/13 03:05:03;;;;;;;7.82;1.23;;;4.00;99.90;;;;;;4861094;29;20032;-77
2021/01/13 03:07:35;;;;;;;12.67;4.10;;;4.00;99.90;;;;;;4863772;29;20036;-78
2021/01/13 03:10:09;;;;;;;4.53;1.00;;;3.90;99.90;;;;;;4846190;29;20487;-78
2021/01/13 03:12:43;;;;;;;10.90;1.88;;;3.90;99.90;;;;;;4861646;29;20102;-78
2021/01/13 03:15:12;;;;;;;8.82;1.65;;;3.90;99.90;;;;;;4860377;29;20029;-78
2021/01/13 03:17:43;;;;;;;5.15;1.40;;;3.90;99.90;;;;;;4860985;29;20040;-78
2021/01/13 03:20:26;;;;;;;7.53;1.13;;;3.90;99.90;;;;;;4861123;29;20049;-77
2021/01/13 03:23:19;;;;;;;10.93;1.92;;;3.90;99.90;;;;;;4845452;29;20037;-77
2021/01/13 03:25:59;;;;;;;9.18;0.88;;;4.00;99.90;;;;;;4845951;29;20042;-77
2021/01/13 03:28:46;;;;;;;15.07;2.17;;;4.10;99.90;;;;;;4860860;29;20045;-77
2021/01/13 03:31:24;;;;;;;19.80;1.75;;;4.20;99.90;;;;;;4843582;29;20030;-77
2021/01/13 03:34:11;;;;;;;10.48;0.98;;;4.30;99.90;;;;;;4859810;29;20428;-78
2021/01/13 03:37:04;;;;;;;11.93;1.67;;;4.20;99.90;;;;;;4846272;29;20033;-77
2021/01/13 03:39:36;;;;;;;9.95;2.20;;;4.10;99.90;;;;;;4859062;29;20037;-78
2021/01/13 03:42:15;;;;;;;10.93;1.30;;;4.20;99.90;;;;;;4859193;29;20037;-78
2021/01/13 03:44:44;;;;;;;8.07;1.20;;;4.20;99.90;;;;;;4841344;29;20034;-78
2021/01/13 03:47:19;;;;;;;8.52;1.85;;;4.30;99.90;;;;;;4862138;29;20133;-77
2021/01/13 03:50:13;;;;;;;3.42;0.82;;;4.30;99.90;;;;;;4861089;29;20066;-76
2021/01/13 03:53:00;;;;;;;17.30;1.10;;;4.30;99.90;;;;;;4860491;29;20036;-77
2021/01/13 03:55:30;;;;;;;7.20;1.65;;;4.40;99.90;;;;;;4838883;29;20555;-77
2021/01/13 03:57:56;;;;;;;9.07;1.20;;;4.40;99.90;;;;;;4845178;29;20025;-78
2021/01/13 04:00:26;;;;;;;3.83;1.17;;;4.40;99.90;;;;;;4861811;29;20036;-78
2021/01/13 04:03:12;;;;;;;3.15;0.77;;;4.30;99.90;;;;;;4861034;29;20033;-77
2021/01/13 04:05:51;;;;;;;7.82;1.00;;;4.30;99.90;;;;;;4860407;29;20045;-78
2021/01/13 04:08:18;;;;;;;6.10;1.88;;;4.30;99.90;;;;;;4844500;29;20539;-77
2021/01/13 04:10:44;;;;;;;6.55;1.13;;;4.30;99.90;;;;;;4845393;29;20053;-79
2021/01/13 04:13:13;;;;;;;11.45;0.80;;;4.30;99.90;;;;;;4860675;29;20056;-77
2021/01/13 04:15:39;;;;;;;4.70;1.13;;;4.30;99.90;;;;;;4860462;29;20034;-77
2021/01/13 04:18:09;;;;;;;4.30;1.42;;;4.30;99.90;;;;;;4861036;29;20382;-77
2021/01/13 04:20:36;;;;;;;9.02;1.75;;;4.40;99.90;;;;;;4860169;29;20057;-78
2021/01/13 04:23:06;;;;;;;15.57;2.08;;;4.40;99.90;;;;;;4861383;29;20080;-77
2021/01/13 04:25:33;;;;;;;5.78;1.25;;;4.40;99.90;;;;;;4857324;29;20125;-77
2021/01/13 04:27:59;;;;;;;9.48;1.20;;;4.40;99.90;;;;;;4861898;29;20036;-77
2021/01/13 04:30:26;;;;;;;7.80;1.40;;;4.40;99.90;;;;;;4861599;29;20394;-77
2021/01/13 04:32:55;;;;;;;3.70;0.90;;;4.40;99.90;;;;;;4860794;29;20025;-78
2021/01/13 04:35:22;;;;;;;10.18;1.45;;;4.40;99.90;;;;;;4840247;29;20033;-77
2021/01/13 04:37:53;;;;;;;12.85;1.50;;;4.40;99.90;;;;;;4860216;29;20040;-77
2021/01/13 04:40:37;;;;;;;12.73;2.28;;;4.40;99.90;;;;;;4860411;29;20029;-77
2021/01/13 04:43:04;;;;;;;5.90;1.80;;;4.40;99.90;;;;;;4835999;29;20049;-78
2021/01/13 04:45:43;;;;;;;8.43;1.50;;;4.40;99.90;;;;;;4838904;29;20040;-76
2021/01/13 04:48:13;;;;;;;8.70;0.98;;;4.30;99.90;;;;;;4860400;29;20085;-75
2021/01/13 04:50:41;;;;;;;4.15;1.20;;;4.30;99.90;;;;;;4860012;29;20085;-77
2021/01/13 04:53:10;;;;;;;10.73;1.42;;;4.30;99.90;;;;;;4860949;29;20028;-75
2021/01/13 04:56:03;;;;;;;9.10;1.70;;;4.40;99.90;;;;;;4841731;29;20106;-75
2021/01/13 04:59:02;;;;;;;6.70;1.38;;;4.30;99.90;;;;;;4857952;29;20038;-77
2021/01/13 05:02:16;;;;;;;8.27;1.35;;;4.40;99.90;;;;;;4860413;29;20129;-76
2021/01/13 05:05:03;;;;;;;3.75;0.73;;;4.40;99.90;;;;;;4858107;29;20064;-76
2021/01/13 05:07:35;;;;;;;3.90;1.13;;;4.30;99.90;;;;;;4859539;29;20490;-76
2021/01/13 05:10:05;;;;;;;8.60;1.23;;;4.30;99.90;;;;;;4859755;29;20036;-77
2021/01/13 05:12:53;;;;;;;16.17;1.20;;;4.30;99.90;;;;;;4859717;29;20124;-75
2021/01/13 05:15:28;;;;;;;9.25;1.90;;;4.30;99.90;;;;;;4859715;29;20048;-78
2021/01/13 05:18:00;;;;;;;11.48;1.40;;;4.30;99.90;;;;;;4855040;29;20048;-76
2021/01/13 05:20:27;;;;;;;10.50;2.05;;;4.30;99.90;;;;;;4859782;29;20044;-77
2021/01/13 05:22:55;;;;;;;5.32;0.57;;;4.30;99.90;;;;;;4858875;29;20029;-76
2021/01/13 05:25:39;;;;;;;10.18;2.20;;;4.30;99.90;;;;;;4859229;29;20033;-76
2021/01/13 05:28:17;;;;;;;16.83;1.38;;;4.30;99.90;;;;;;4859362;29;20035;-78
2021/01/13 05:30:53;;;;;;;;;;;4.30;99.90;;;;;;4844185;29;20029;-77
2021/01/13 05:33:32;;;;;;;17.00;2.33;;;4.30;99.90;;;;;;4859619;29;19918;-77
2021/01/13 05:36:03;;;;;;;7.70;2.45;;;4.40;99.90;;;;;;4844059;29;20475;-77
2021/01/13 05:38:39;;;;;;;8.63;2.30;;;4.50;99.90;;;;;;4844054;29;20041;-76
2021/01/13 05:41:13;;;;;;;21.50;2.95;;;4.60;99.90;;;;;;4859448;29;20033;-76
2021/01/13 05:43:47;;;;;;;14.60;1.80;;;4.60;99.90;;;;;;4860699;29;20040;-77
2021/01/13 05:46:41;;;;;;;8.77;1.85;;;4.60;99.90;;;;;;4855569;29;20048;-78
2021/01/13 05:49:43;;;;;;;11.95;2.40;;;4.50;99.90;;;;;;4857183;29;20045;-78
2021/01/13 05:52:09;;;;;;;6.35;1.88;;;4.60;99.90;;;;;;4857144;29;20030;-76
2021/01/13 05:54:38;;;;;;;10.45;1.13;;;4.50;99.90;;;;;;4859225;29;20085;-76
2021/01/13 05:57:05;;;;;;;10.00;1.02;;;4.50;99.90;;;;;;4843234;29;20056;-75
2021/01/13 05:59:34;;;;;;;10.05;1.38;;;4.40;99.90;;;;;;4860285;29;20113;-77
2021/01/13 06:02:02;;;;;;;12.82;1.27;;;4.50;99.90;;;;;;4858749;29;20043;-76
2021/01/13 06:04:28;;;;;;;9.80;1.23;;;4.40;99.90;;;;;;4862110;29;20082;-76
2021/01/13 06:07:11;;;;;;;11.48;1.08;;;4.50;99.90;;;;;;4861283;29;20037;-76
2021/01/13 06:09:41;;;;;;;11.73;1.15;;;4.50;99.90;;;;;;4854524;29;20029;-77
2021/01/13 06:12:16;;;;;;;5.88;0.95;;;4.40;99.90;;;;;;4861994;29;20108;-76
2021/01/13 06:14:42;;;;;;;6.07;0.80;;;4.40;99.90;;;;;;4846701;29;20531;-77
2021/01/13 06:17:21;;;;;;;5.57;0.88;;;4.40;99.90;;;;;;4862205;29;20022;-76
2021/01/13 06:19:48;;;;;;;6.80;1.27;;;4.30;99.90;;;;;;4863142;29;20538;-77
2021/01/13 06:22:15;;;;;;;9.73;0.83;;;4.40;99.90;;;;;;4863109;29;20029;-77
2021/01/13 06:24:41;;;;;;;15.77;1.92;;;4.50;99.90;;;;;;4846891;29;20125;-76
2021/01/13 06:27:22;;;;;;;12.32;1.40;;;4.30;99.90;;;;;;4860523;29;20062;-76
2021/01/13 06:29:51;;;;;;;9.82;1.25;;;4.30;99.90;;;;;;4860157;29;20057;-76
2021/01/13 06:32:28;;;;;;;9.88;1.40;;;4.30;99.90;;;;;;4862078;29;20029;-77
2021/01/13 06:35:15;;;;;;;8.85;1.60;;;4.30;99.90;;;;;;4860871;29;20041;-77
2021/01/13 06:37:55;;;;;;;7.47;1.13;;;4.30;99.90;;;;;;4862469;29;20109;-77
2021/01/13 06:40:21;;;;;;;7.35;1.17;;;4.40;99.90;;;;;;4843520;29;20044;-76
2021/01/13 06:42:48;;;;;;;2.35;0.80;;;4.40;99.90;;;;;;4861394;29;20025;-76
2021/01/13 06:45:18;;;;;;;10.73;1.15;;;4.40;99.90;;;;;;4862875;29;20422;-77
2021/01/13 06:47:57;;;;;;;15.55;1.55;;;4.40;99.90;;;;;;4861613;29;20049;-77
2021/01/13 06:50:54;;;;;;;10.45;1.10;;;4.40;99.90;;;;;;4859356;29;20185;-77
2021/01/13 06:53:21;;;;;;;12.05;1.00;;;4.50;99.90;;;;;;4858341;29;20030;-76
2021/01/13 06:55:50;;;;;;;12.93;1.67;;;4.40;99.90;;;;;;4861609;29;20038;-76
2021/01/13 06:58:17;;;;;;;10.10;2.10;;;4.30;99.90;;;;;;4862311;29;20057;-76
2021/01/13 07:00:45;;;;;;;10.45;1.35;;;4.40;99.90;;;;;;4860947;29;20042;-76
2021/01/13 07:03:30;;;;;;;6.37;0.77;;;4.40;99.90;;;;;;4861151;29;20025;-77
2021/01/13 07:06:00;;;;;;;6.05;1.00;;;4.40;99.90;;;;;;4845388;29;20038;-77
2021/01/13 07:08:27;;;;;;;6.47;1.23;;;4.50;99.90;;;;;;4860204;29;20061;-78
2021/01/13 07:11:03;;;;;;;11.88;1.20;;;4.50;99.90;;;;;;4861675;29;20029;-75
2021/01/13 07:13:35;;;;;;;14.15;1.48;;;4.50;99.90;;;;;;4857014;29;20041;-77
2021/01/13 07:16:03;;;;;;;6.78;1.27;;;4.50;99.90;;;;;;4860013;29;20032;-77
2021/01/13 07:18:31;;;;;;;13.05;2.63;;;4.50;99.90;;;;;;4858064;29;20128;-77
2021/01/13 07:21:04;;;;;;;;;;;4.40;99.90;;;;;;4861507;29;20093;-76
2021/01/13 07:23:30;;;;;;;8.68;1.70;;;4.40;99.90;;;;;;4860924;29;19908;-75
2021/01/13 07:25:56;;;;;;;9.52;1.48;;;4.40;99.90;;;;;;4861758;29;20025;-76
2021/01/13 07:28:23;;;;;;;8.48;1.23;;;4.30;99.90;;;;;;4860555;29;20037;-76
2021/01/13 07:30:52;;;;;;;12.18;1.67;;;4.30;99.90;;;;;;4844808;29;20120;-76
2021/01/13 07:33:19;;;;;;;9.50;1.60;;;4.30;99.90;;;;;;4861784;29;20025;-77
2021/01/13 07:35:55;;;;;;;18.50;1.60;;;4.40;99.90;;;;;;4860839;29;20025;-76
2021/01/13 07:38:21;;;;;;;4.53;0.95;;;4.40;99.90;;;;;;4855429;29;20060;-76
2021/01/13 07:41:04;;;;;;;10.65;1.40;;;4.30;99.90;;;;;;4860044;29;20029;-75
2021/01/13 07:43:51;;;;;;;14.05;1.95;;;4.40;99.90;;;;;;4855918;29;20034;-77
2021/01/13 07:46:27;;;;;;;5.10;1.60;;;4.40;99.90;;;;;;4861693;29;20057;-77
2021/01/13 07:49:21;;;;;;;9.35;1.20;;;4.40;99.90;;;;;;4864769;29;20018;-78
2021/01/13 07:51:52;;;;;;;10.90;1.98;;;4.50;99.90;;;;;;4864823;29;20486;-82
2021/01/13 07:54:29;;;;;;;10.88;1.70;;;4.50;99.90;;;;;;4861180;29;20026;-79
2021/01/13 07:56:58;;;;;;;7.32;1.70;;;4.50;99.90;;;;;;4844977;29;20037;-81
2021/01/13 07:59:44;;;;;;;5.05;1.40;;;4.50;99.90;;;;;;4832608;29;20453;-81
2021/01/13 08:02:53;;;;;;;4.68;1.38;;;4.50;99.90;;;;;;4844336;29;20085;-82
2021/01/13 08:05:38;;;;;;;11.38;1.58;;;4.40;99.90;;;;;;4859576;29;20097;-80
2021/01/13 08:08:10;;;;;;;12.13;2.42;;;4.50;99.90;;;;;;4861057;29;20038;-80
2021/01/13 08:10:38;;;;;;;10.52;1.10;;;4.50;99.90;;;;;;4860048;29;20138;-81
2021/01/13 08:13:22;;;;;;;8.25;1.45;;;4.50;99.90;;;;;;4857365;29;20120;-81
2021/01/13 08:16:09;;;;;;;9.82;1.67;;;4.50;99.90;;;;;;4857478;29;20025;-82
2021/01/13 08:18:58;;;;;;;5.88;1.45;;;4.50;99.90;;;;;;4860856;29;20037;-82
2021/01/13 08:21:33;;;;;;;9.82;1.52;;;4.60;99.90;;;;;;4858546;29;20128;-81
2021/01/13 08:24:16;;;;;;;19.98;3.05;;;4.60;99.90;;;;;;4842526;29;20037;-82
2021/01/13 08:26:44;;;;;;;16.75;1.73;;;4.70;99.90;;;;;;4846372;29;20116;-80
2021/01/13 08:29:18;;;;;;;6.88;1.63;;;4.70;99.90;;;;;;4859823;29;20037;-80
2021/01/13 08:31:50;;;;;;;7.38;1.50;;;4.70;99.90;;;;;;4858291;29;20490;-80
2021/01/13 08:34:17;;;;;;;5.97;1.60;;;4.80;99.90;;;;;;4860477;29;20118;-80
2021/01/13 08:36:56;;;;;;;4.75;1.52;;;4.80;99.90;;;;;;4844815;29;20090;-80
2021/01/13 08:39:30;;;;;;;16.00;1.35;;;4.90;99.90;;;;;;4839800;29;20039;-80
2021/01/13 08:42:19;;;;;;;8.13;1.27;;;5.10;99.90;;;;;;4860603;29;20026;-81
2021/01/13 08:44:45;;;;;;;11.30;2.10;;;5.20;99.90;;;;;;4862175;29;20029;-80
2021/01/13 08:47:11;;;;;;;6.47;1.52;;;5.30;99.90;;;;;;4856291;29;20049;-81
2021/01/13 08:49:37;;;;;;;12.48;1.65;;;5.50;99.90;;;;;;4842711;29;20038;-80
2021/01/13 08:52:19;;;;;;;8.73;1.73;;;5.50;99.90;;;;;;4837222;29;20094;-82
2021/01/13 08:55:06;;;;;;;17.85;2.38;;;5.60;99.90;;;;;;4843081;29;20410;-82
2021/01/13 08:57:51;;;;;;;11.52;1.67;;;5.70;99.90;;;;;;4831679;29;20551;-82
2021/01/13 09:00:19;;;;;;;11.38;1.50;;;5.70;99.90;;;;;;4841756;29;20483;-81
2021/01/13 09:03:26;;;;;;;9.98;1.63;;;5.60;99.90;;;;;;4856867;29;20030;-80
2021/01/13 09:05:56;;;;;;;5.93;1.40;;;5.50;99.90;;;;;;4844357;29;20033;-82
2021/01/13 09:08:31;;;;;;;4.65;1.45;;;5.40;99.90;;;;;;4843773;29;20121;-84
2021/01/13 09:10:57;;;;;;;4.25;1.13;;;5.40;99.90;;;;;;4850859;29;20034;-85
2021/01/13 09:13:43;;;;;;;8.50;1.35;;;5.50;99.90;;;;;;4855060;29;20042;-85
2021/01/13 09:16:30;;;;;;;11.73;1.65;;;5.50;99.90;;;;;;4849190;29;20030;-78
2021/01/13 09:19:05;;;;;;;15.02;3.05;;;5.60;99.90;;;;;;4843137;29;20038;-78
2021/01/13 09:21:39;;;;;;;5.93;1.40;;;5.60;99.90;;;;;;4848919;29;20053;-79
2021/01/13 09:24:08;;;;;;;9.13;1.55;;;5.60;99.90;;;;;;4843561;29;20117;-80
2021/01/13 09:26:36;;;;;;;13.45;2.13;;;5.70;99.90;;;;;;4857994;29;20053;-78
2021/01/13 09:29:11;;;;;;;11.60;1.60;;;5.60;99.90;;;;;;4859196;29;20022;-78
2021/01/13 09:31:39;;;;;;;11.43;2.03;;;5.60;99.90;;;;;;4842951;29;20022;-80
2021/01/13 09:34:06;;;;;;;14.90;1.55;;;5.50;99.90;;;;;;4842156;29;20407;-80
2021/01/13 09:36:55;;;;;;;10.85;1.65;;;5.50;99.90;;;;;;4851659;29;20527;-82
2021/01/13 09:39:34;;;;;;;23.13;1.98;;;5.50;99.90;;;;;;4873938;29;20041;-80
2021/01/13 09:42:01;;;;;;;8.80;1.65;;;5.50;99.90;;;;;;4839806;29;20046;-80
2021/01/13 09:44:32;;;;;;;12.10;2.23;;;5.30;99.90;;;;;;4861510;29;20062;-79
2021/01/13 09:47:24;;;;;;;15.68;2.15;;;5.40;99.90;;;;;;4849498;29;20337;-80
2021/01/13 09:49:57;;;;;;;12.20;1.92;;;5.40;99.90;;;;;;4845532;29;20479;-78
2021/01/13 09:52:38;;;;;;;9.20;1.67;;;5.30;99.90;;;;;;4854532;29;20037;-78
2021/01/13 09:55:05;;;;;;;14.40;1.70;;;5.30;99.90;;;;;;4859860;29;20514;-79
2021/01/13 09:57:36;;;;;;;6.75;1.23;;;5.30;99.90;;;;;;4865061;29;20030;-79
2021/01/13 10:00:30;;;;;;;14.77;2.80;;;5.30;99.90;;;;;;4843979;29;20117;-79
2021/01/13 10:02:56;;;;;;;28.98;3.22;;;5.40;99.90;;;;;;4845544;29;20073;-78
2021/01/13 10:05:24;;;;;;;9.02;1.13;;;5.40;99.90;;;;;;4845879;29;20070;-79
2021/01/13 10:07:51;;;;;;;9.20;1.58;;;5.40;99.90;;;;;;4860736;29;20490;-79
2021/01/13 10:10:23;;;;;;;13.23;1.55;;;5.50;99.90;;;;;;4848206;29;20086;-81
2021/01/13 10:12:51;;;;;;;11.55;1.88;;;5.60;99.90;;;;;;4844965;29;20087;-77
2021/01/13 10:15:17;;;;;;;14.10;2.08;;;5.70;99.90;;;;;;4846577;29;20030;-79
2021/01/13 10:17:44;;;;;;;11.80;1.92;;;5.90;99.90;;;;;;4847981;29;20033;-79
2021/01/13 10:20:17;;;;;;;4.95;1.17;;;6.00;99.90;;;;;;4849654;29;20041;-77
2021/01/13 10:22:45;;;;;;;7.63;2.75;;;6.00;99.90;;;;;;4859462;29;20579;-77
2021/01/13 10:25:11;;;;;;;13.60;1.93;;;6.00;99.90;;;;;;4851088;29;20028;-77
2021/01/13 10:27:43;;;;;;;14.25;1.58;;;6.00;99.90;;;;;;4844739;29;20086;-78
2021/01/13 10:30:12;;;;;;;11.57;1.48;;;6.10;99.90;;;;;;4837953;29;20038;-79
2021/01/13 10:32:50;;;;;;;6.88;1.30;;;6.00;99.90;;;;;;4852268;29;20030;-78
2021/01/13 10:35:17;;;;;;;8.90;2.15;;;6.10;99.90;;;;;;4825611;29;20480;-80
2021/01/13 10:37:54;;;;;;;9.30;1.58;;;6.00;99.90;;;;;;4827835;29;20087;-78
2021/01/13 10:40:22;;;;;;;6.35;1.40;;;6.10;99.90;;;;;;4828498;29;20503;-77
2021/01/13 10:42:50;;;;;;;11.70;1.13;;;6.10;99.90;;;;;;4843734;29;20125;-80
2021/01/13 10:45:17;;;;;;;7.85;1.20;;;6.10;99.90;;;;;;4844823;29;20033;-78
2021/01/13 10:48:04;;;;;;;7.22;1.38;;;6.00;99.90;;;;;;4858659;29;20442;-78
2021/01/13 10:50:32;;;;;;;6.45;1.40;;;6.00;99.90;;;;;;4823021;29;20458;-78
2021/01/13 10:53:00;;;;;;;;;;;6.00;99.90;;;;;;4824623;29;20046;-81
2021/01/13 10:55:26;;;;;;;;;;;6.00;99.90;;;;;;4823088;29;20287;-79
2021/01/13 10:57:53;;;;;;;7.88;1.13;;;6.00;99.90;;;;;;4822985;29;20088;-78
2021/01/13 11:00:22;;;;;;;5.55;1.33;;;6.00;99.90;;;;;;4816594;29;20566;-78
2021/01/13 11:02:59;;;;;;;6.72;1.40;;;6.00;99.90;;;;;;4829245;29;20035;-79
2021/01/13 11:05:27;;;;;;;6.63;1.40;;;6.00;99.90;;;;;;4826380;29;20078;-79
2021/01/13 11:07:54;;;;;;;5.00;1.17;;;6.00;99.90;;;;;;4822466;29;20037;-79
2021/01/13 11:10:22;;;;;;;10.38;2.50;;;5.80;99.90;;;;;;4809163;29;20082;-79
2021/01/13 11:13:01;;;;;;;7.90;1.25;;;5.80;99.90;;;;;;4816467;29;20067;-80
2021/01/13 11:15:27;;;;;;;6.55;1.02;;;5.80;99.90;;;;;;4823903;29;20102;-80
2021/01/13 11:17:56;;;;;;;9.90;1.05;;;5.90;99.90;;;;;;4822821;29;20042;-80
2021/01/13 11:20:23;;;;;;;15.02;2.15;;;5.90;99.90;;;;;;4824664;29;20118;-80
2021/01/13 11:22:57;;;;;;;9.57;1.10;;;5.90;99.90;;;;;;4845296;29;20026;-79
2021/01/13 11:25:30;;;;;;;4.82;1.52;;;6.00;99.90;;;;;;4844549;29;20456;-78
2021/01/13 11:28:02;;;;;;;9.18;1.02;;;6.00;99.90;;;;;;4844512;29;20018;-79
2021/01/13 11:30:29;;;;;;;7.38;1.98;;;5.90;99.90;;;;;;4855120;29;20028;-80
2021/01/13 11:33:00;;;;;;;8.68;1.67;;;5.90;99.90;;;;;;4858409;29;20033;-79
2021/01/13 11:35:31;;;;;;;9.30;1.50;;;5.90;99.90;;;;;;4858563;29;20017;-80
2021/01/13 11:38:25;;;;;;;6.03;1.38;;;5.90;99.90;;;;;;4858482;29;20041;-79
2021/01/13 11:41:16;;;;;;;9.55;1.60;;;5.90;99.90;;;;;;4840478;29;20383;-78
2021/01/13 11:44:00;;;;;;;9.07;1.33;;;5.90;99.90;;;;;;4819822;29;20082;-79
2021/01/13 11:46:34;;;;;;;9.98;1.10;;;5.90;99.90;;;;;;4857761;29;20057;-80
2021/01/13 11:49:03;;;;;;;18.98;1.70;;;5.90;99.90;;;;;;4844582;29;20085;-79
2021/01/13 11:51:33;;;;;;;14.70;1.20;;;6.00;99.90;;;;;;4858012;29;20046;-78
2021/01/13 11:53:59;;;;;;;9.18;1.40;;;6.20;99.90;;;;;;4851019;29;20598;-78
2021/01/13 11:56:29;;;;;;;16.02;2.13;;;6.30;99.90;;;;;;4836051;29;20237;-77
2021/01/13 11:58:56;;;;;;;5.63;1.60;;;6.40;99.90;;;;;;4842188;29;20034;-78
2021/01/13 12:01:25;;;;;;;10.80;2.80;;;6.40;99.90;;;;;;4841357;29;20025;-79
2021/01/13 12:04:00;;;;;;;;;;;6.40;99.90;;;;;;4857261;29;20116;-78
2021/01/13 12:06:26;;;;;;;8.50;2.17;;;6.40;99.90;;;;;;4843157;29;19937;-79
2021/01/13 12:08:52;;;;;;;4.47;1.63;;;6.40;99.90;;;;;;4847918;29;20113;-81
2021/01/13 12:11:18;;;;;;;4.63;1.38;;;6.50;99.90;;;;;;4840463;29;20033;-80
2021/01/13 12:13:45;;;;;;;14.85;2.28;;;6.60;99.90;;;;;;4857221;29;20061;-77
2021/01/13 12:16:18;;;;;;;20.83;2.40;;;6.50;99.90;;;;;;4857150;29;20045;-80
2021/01/13 12:18:49;;;;;;;7.75;2.05;;;6.50;99.90;;;;;;4843269;29;20042;-79
2021/01/13 12:21:18;;;;;;;9.40;1.40;;;6.40;99.90;;;;;;4858343;29;20033;-81
2021/01/13 12:24:23;;;;;;;14.50;1.58;;;6.30;99.90;;;;;;4838195;29;20066;-80
2021/01/13 12:26:50;;;;;;;8.52;1.42;;;6.10;99.90;;;;;;4842438;29;20106;-79
2021/01/13 12:29:21;;;;;;;5.05;1.17;;;6.00;99.90;;;;;;4841900;29;20038;-77
2021/01/13 12:31:53;;;;;;;12.43;1.40;;;6.00;99.90;;;;;;4842763;29;20022;-81
2021/01/13 12:34:32;;;;;;;14.20;1.70;;;6.10;99.90;;;;;;4842309;29;20444;-77
2021/01/13 12:37:04;;;;;;;9.27;1.38;;;6.10;99.90;;;;;;4839606;29;20098;-78
2021/01/13 12:39:35;;;;;;;11.63;1.10;;;6.20;99.90;;;;;;4843183;29;20063;-78
2021/01/13 12:42:03;;;;;;;7.50;1.80;;;6.30;99.90;;;;;;4842428;29;20105;-78
2021/01/13 12:44:31;;;;;;;5.60;1.35;;;6.20;99.90;;;;;;4857167;29;20117;-80
2021/01/13 12:47:02;;;;;;;1.90;1.00;;;6.00;99.90;;;;;;4853308;29;20453;-82
2021/01/13 12:49:44;;;;;;;;;;;;;;;;;;;;;
2021/01/13 12:52:13;;;;;;;7.85;2.20;;;5.90;99.90;;;;;;4823106;29;20044;-82
2021/01/13 12:54:39;;;;;;;6.90;1.30;;;5.80;99.90;;;;;;4840188;29;20030;-82
2021/01/13 12:57:04;;;;;;;9.43;1.40;;;5.70;99.90;;;;;;4821146;29;20121;-82
2021/01/13 12:59:30;;;;;;;6.80;1.17;;;5.70;99.90;;;;;;4837855;29;20031;-82
2021/01/13 13:01:56;;;;;;;6.05;1.67;;;5.80;99.90;;;;;;4823024;29;20026;-83
2021/01/13 13:04:24;;;;;;;7.18;1.60;;;5.90;99.90;;;;;;4836427;29;20038;-82
2021/01/13 13:06:51;;;;;;;;;;;6.00;99.90;;;;;;4825590;29;20034;-77
2021/01/13 13:09:17;;;;;;;8.27;1.20;;;6.20;99.90;;;;;;4820980;29;19919;-76
2021/01/13 13:11:42;;;;;;;6.40;1.55;;;6.30;99.90;;;;;;4838810;29;20034;-75
2021/01/13 13:14:11;;;;;;;5.97;1.20;;;6.40;99.90;;;;;;4830836;29;20056;-74
2021/01/13 13:16:43;;;;;;;7.20;1.30;;;6.50;99.90;;;;;;4836238;29;20030;-75
2021/01/13 13:19:10;;;;;;;10.65;1.20;;;6.60;99.90;;;;;;4836520;29;20533;-74
2021/01/13 13:21:36;;;;;;;9.95;1.50;;;6.70;99.90;;;;;;4821462;29;20030;-76
2021/01/13 13:24:02;;;;;;;8.27;1.27;;;6.50;99.90;;;;;;4822177;29;20105;-77
2021/01/13 13:26:27;;;;;;;6.25;2.15;;;6.50;99.90;;;;;;4835586;29;20427;-76